createdAt,value
2022-10-02T00:02:53.147Z,82.59
2022-10-02T00:08:07.468Z,82.66
2022-10-02T00:13:19.766Z,83.86
2022-10-02T00:18:32.994Z,84.34
2022-10-02T00:23:35.261Z,84.55
2022-10-02T00:28:40.340Z,84.40
2022-10-02T00:33:58.381Z,85.48
2022-10-02T00:39:04.627Z,85.06
2022-10-02T00:44:23.816Z,85.63
2022-10-02T00:49:42.072Z,86.34
2022-10-02T00:54:56.298Z,86.70
2022-10-02T01:00:13.736Z,86.66
2022-10-02T01:05:16.255Z,86.85
2022-10-02T01:10:27.494Z,85.42
2022-10-02T01:15:36.052Z,86.11
2022-10-02T01:20:41.993Z,85.95
2022-10-02T01:25:44.332Z,86.55
2022-10-02T01:30:50.324Z,86.93
2022-10-02T01:35:52.586Z,85.89
2022-10-02T01:40:58.135Z,85.52
2022-10-02T01:46:25.481Z,86.42
2022-10-02T01:51:31.154Z,84.07
2022-10-02T01:56:58.797Z,85.15
2022-10-02T02:02:01.765Z,85.15
2022-10-02T02:07:04.826Z,85.38
2022-10-02T02:12:09.756Z,86.97
2022-10-02T02:17:35.088Z,86.61
2022-10-02T02:22:40.607Z,86.46
2022-10-02T02:27:44.418Z,87.00
2022-10-02T02:32:55.002Z,87.40
2022-10-02T02:38:07.592Z,87.55
2022-10-02T02:43:13.104Z,87.90
2022-10-02T02:48:29.840Z,88.82
2022-10-02T02:53:31.968Z,87.62
2022-10-02T02:58:56.265Z,87.37
2022-10-02T03:04:01.027Z,87.58
2022-10-02T03:09:05.761Z,88.17
2022-10-02T03:14:12.734Z,88.88
2022-10-02T03:19:21.452Z,88.28
2022-10-02T03:24:32.167Z,87.99
2022-10-02T03:29:42.219Z,88.05
2022-10-02T03:34:44.771Z,88.03
2022-10-02T03:39:50.182Z,87.90
2022-10-02T03:44:53.251Z,87.67
2022-10-02T03:49:55.444Z,86.94
2022-10-02T03:55:01.624Z,86.41
2022-10-02T04:00:09.282Z,86.92
2022-10-02T04:05:21.195Z,88.11
2022-10-02T04:10:46.492Z,86.70
2022-10-02T04:15:56.594Z,87.39
2022-10-02T04:21:00.213Z,87.44
2022-10-02T04:26:16.266Z,86.71
2022-10-02T04:31:18.673Z,87.36
2022-10-02T04:36:33.202Z,86.10
2022-10-02T04:41:54.412Z,87.06
2022-10-02T04:47:07.216Z,87.12
2022-10-02T04:52:15.082Z,87.27
2022-10-02T04:57:21.618Z,88.50
2022-10-02T05:02:24.024Z,88.99
2022-10-02T05:07:34.799Z,89.13
2022-10-02T05:12:45.612Z,88.50
2022-10-02T05:18:14.651Z,87.46
2022-10-02T05:23:37.996Z,88.58
2022-10-02T05:28:58.674Z,89.25
2022-10-02T05:34:19.406Z,90.27
2022-10-02T05:39:30.890Z,89.57
2022-10-02T05:44:37.704Z,88.65
2022-10-02T05:49:41.954Z,88.75
2022-10-02T05:54:55.782Z,89.06
2022-10-02T06:00:04.548Z,88.45
2022-10-02T06:05:40.219Z,88.09
2022-10-02T06:10:49.969Z,87.49
2022-10-02T06:15:57.220Z,86.55
2022-10-02T06:21:19.842Z,84.86
2022-10-02T06:26:32.772Z,83.46
2022-10-02T06:31:53.663Z,81.44
2022-10-02T06:37:22.138Z,80.52
2022-10-02T06:42:34.511Z,78.92
2022-10-02T06:47:42.908Z,77.09
2022-10-02T06:52:46.248Z,75.81
2022-10-02T06:57:56.543Z,71.93
2022-10-02T07:02:59.741Z,68.97
2022-10-02T07:08:05.755Z,68.76
2022-10-02T07:13:14.092Z,68.75
2022-10-02T07:18:19.870Z,67.09
2022-10-02T07:23:31.780Z,67.56
2022-10-02T07:28:51.452Z,66.16
2022-10-02T07:34:13.237Z,65.99
2022-10-02T07:39:34.390Z,66.22
2022-10-02T07:44:58.394Z,65.78
2022-10-02T07:50:01.677Z,65.21
2022-10-02T07:55:23.233Z,66.44
2022-10-02T08:00:30.835Z,64.36
2022-10-02T08:05:38.483Z,66.27
2022-10-02T08:10:46.855Z,64.62
2022-10-02T08:15:54.546Z,57.24
2022-10-02T08:20:57.142Z,55.47
2022-10-02T08:26:13.866Z,58.46
2022-10-02T08:31:16.862Z,59.75
2022-10-02T08:36:32.149Z,61.20
2022-10-02T08:41:44.701Z,61.15
2022-10-02T08:47:05.950Z,60.97
2022-10-02T08:52:09.831Z,62.29
2022-10-02T08:57:23.769Z,60.88
2022-10-02T09:02:44.867Z,59.68
2022-10-02T09:08:18.160Z,60.75
2022-10-02T09:13:39.317Z,60.22
2022-10-02T09:18:49.873Z,58.31
2022-10-02T09:23:57.027Z,59.42
2022-10-02T09:29:23.309Z,58.24
2022-10-02T09:34:28.346Z,59.34
2022-10-02T09:39:51.689Z,58.76
2022-10-02T09:45:44.104Z,57.46
2022-10-02T09:50:56.479Z,57.82
2022-10-02T09:56:17.550Z,58.31
2022-10-02T10:01:38.478Z,58.15
2022-10-02T10:06:54.717Z,59.04
2022-10-02T10:12:32.366Z,58.34
2022-10-02T10:18:06.819Z,57.73
2022-10-02T10:23:31.874Z,55.65
2022-10-02T10:28:48.981Z,52.85
2022-10-02T10:34:22.268Z,54.05
2022-10-02T10:39:44.139Z,53.73
2022-10-02T10:45:15.422Z,53.42
2022-10-02T10:50:47.316Z,53.07
2022-10-02T10:55:49.616Z,54.42
2022-10-02T11:01:03.344Z,52.24
2022-10-02T11:06:08.249Z,53.51
2022-10-02T11:11:19.927Z,53.35
2022-10-02T11:16:35.435Z,54.31
2022-10-02T11:21:57.409Z,54.89
2022-10-02T11:27:02.461Z,54.96
2022-10-02T11:32:18.104Z,54.55
2022-10-02T11:37:38.927Z,51.58
2022-10-02T11:43:00.699Z,53.30
2022-10-02T11:48:02.970Z,56.36
2022-10-02T11:53:11.346Z,53.20
2022-10-02T11:58:19.779Z,55.56
2022-10-02T12:03:31.419Z,55.56
2022-10-02T12:08:36.697Z,54.73
2022-10-02T12:13:48.393Z,54.62
2022-10-02T12:19:09.859Z,55.61
2022-10-02T12:24:37.421Z,58.15
2022-10-02T12:29:45.269Z,59.32
2022-10-02T12:34:51.126Z,60.54
2022-10-02T12:39:54.554Z,61.10
2022-10-02T12:44:58.351Z,61.63
2022-10-02T12:50:08.179Z,62.04
2022-10-02T12:55:13.783Z,62.65
2022-10-02T13:00:19.700Z,64.32
2022-10-02T13:05:33.433Z,64.71
2022-10-02T13:10:41.469Z,64.58
2022-10-02T13:16:04.632Z,64.05
2022-10-02T13:21:16.119Z,63.06
2022-10-02T13:26:21.339Z,63.28
2022-10-02T13:31:46.988Z,62.63
2022-10-02T13:36:56.074Z,58.77
2022-10-02T13:42:04.207Z,58.64
2022-10-02T13:47:12.299Z,58.64
2022-10-02T13:52:20.702Z,56.86
2022-10-02T13:57:51.415Z,53.91
2022-10-02T14:03:02.224Z,53.70
2022-10-02T14:08:05.485Z,52.26
2022-10-02T14:13:11.809Z,52.23
2022-10-02T14:18:22.264Z,53.29
2022-10-02T14:23:33.523Z,55.14
2022-10-02T14:28:54.174Z,56.57
2022-10-02T14:34:01.388Z,56.88
2022-10-02T14:39:11.000Z,55.78
2022-10-02T14:44:13.713Z,56.76
2022-10-02T14:49:34.468Z,56.63
2022-10-02T14:54:59.536Z,55.94
2022-10-02T15:00:08.738Z,56.44
2022-10-02T15:05:13.516Z,56.12
2022-10-02T15:10:23.798Z,56.93
2022-10-02T15:15:45.016Z,58.37
2022-10-02T15:20:51.514Z,61.41
2022-10-02T15:25:56.537Z,63.26
2022-10-02T15:31:04.166Z,64.91
2022-10-02T15:36:32.235Z,66.02
2022-10-02T15:41:40.843Z,66.46
2022-10-02T15:46:49.949Z,67.38
2022-10-02T15:51:54.956Z,68.55
2022-10-02T15:57:08.153Z,69.64
2022-10-02T16:02:31.221Z,69.82
2022-10-02T16:07:47.237Z,70.54
2022-10-02T16:13:14.615Z,70.45
2022-10-02T16:18:24.500Z,71.19
2022-10-02T16:23:38.434Z,72.86
2022-10-02T16:28:59.265Z,74.05
2022-10-02T16:34:10.961Z,72.12
2022-10-02T16:39:26.069Z,72.20
2022-10-02T16:44:35.053Z,73.49
2022-10-02T16:49:57.441Z,72.41
2022-10-02T16:55:14.820Z,73.72
2022-10-02T17:00:22.509Z,74.55
2022-10-02T17:05:49.975Z,74.74
2022-10-02T17:11:03.526Z,75.02
2022-10-02T17:16:11.324Z,74.59
2022-10-02T17:21:17.387Z,74.60
2022-10-02T17:26:32.022Z,74.78
2022-10-02T17:31:40.092Z,74.72
2022-10-02T17:36:53.563Z,74.94
2022-10-02T17:41:58.702Z,75.68
2022-10-02T17:47:16.013Z,76.41
2022-10-02T17:52:36.641Z,76.58
2022-10-02T17:57:46.177Z,76.60
2022-10-02T18:03:03.613Z,76.76
2022-10-02T18:08:27.377Z,77.93
2022-10-02T18:13:44.997Z,79.52
2022-10-02T18:19:05.217Z,80.11
2022-10-02T18:24:26.106Z,80.88
2022-10-02T18:29:46.848Z,81.82
2022-10-02T18:35:04.299Z,82.22
2022-10-02T18:40:24.718Z,82.42
2022-10-02T18:45:45.863Z,82.41
2022-10-02T18:50:56.109Z,83.05
2022-10-02T18:56:09.863Z,82.50
2022-10-02T19:01:21.038Z,83.02
2022-10-02T19:06:43.662Z,85.00
2022-10-02T19:11:47.897Z,86.12
2022-10-02T19:17:01.515Z,85.75
2022-10-02T19:22:14.542Z,86.60
2022-10-02T19:27:19.907Z,86.38
2022-10-02T19:32:27.834Z,85.26
2022-10-02T19:37:31.562Z,86.13
2022-10-02T19:42:45.103Z,83.15
2022-10-02T19:47:53.970Z,84.84
2022-10-02T19:53:04.158Z,85.63
2022-10-02T19:58:25.057Z,85.58
2022-10-02T20:03:28.175Z,85.80
2022-10-02T20:08:43.331Z,85.93
2022-10-02T20:13:52.260Z,83.20
2022-10-02T20:18:54.467Z,84.58
2022-10-02T20:23:58.474Z,85.54
2022-10-02T20:29:05.059Z,85.40
2022-10-02T20:34:13.967Z,85.70
2022-10-02T20:39:21.316Z,85.92
2022-10-02T20:44:26.935Z,84.71
2022-10-02T20:49:48.680Z,86.21
2022-10-02T20:54:55.624Z,86.65
2022-10-02T21:00:19.201Z,86.29
2022-10-02T21:05:35.257Z,85.60
2022-10-02T21:10:45.638Z,86.95
2022-10-02T21:16:09.667Z,87.51
2022-10-02T21:21:37.210Z,87.80
2022-10-02T21:26:46.221Z,89.07
2022-10-02T21:32:17.165Z,88.46
2022-10-02T21:37:30.713Z,90.28
2022-10-02T21:42:52.644Z,90.30
2022-10-02T21:48:14.474Z,91.23
2022-10-02T21:53:37.953Z,91.41
2022-10-02T21:58:55.557Z,91.79
2022-10-02T22:04:03.595Z,92.49
2022-10-02T22:09:30.799Z,92.57
2022-10-02T22:14:47.409Z,93.09
2022-10-02T22:19:54.001Z,93.23
2022-10-02T22:25:14.820Z,94.15
2022-10-02T22:30:31.650Z,94.54
2022-10-02T22:35:43.269Z,95.13
2022-10-02T22:40:52.376Z,94.54
2022-10-02T22:46:00.589Z,95.33
2022-10-02T22:51:10.106Z,94.93
2022-10-02T22:56:44.884Z,95.97
2022-10-02T23:01:52.380Z,95.55
2022-10-02T23:07:08.482Z,96.02
2022-10-02T23:12:17.085Z,96.59
2022-10-02T23:17:28.402Z,96.38
2022-10-02T23:22:35.849Z,96.91
2022-10-02T23:27:50.876Z,95.99
2022-10-02T23:33:17.054Z,95.88
2022-10-02T23:38:31.017Z,95.31
2022-10-02T23:43:48.811Z,96.34
2022-10-02T23:48:53.496Z,96.98
2022-10-02T23:54:07.658Z,99.04
2022-10-02T23:59:24.857Z,100.00
